createdAt,value
2022-12-31T00:00:34.521Z,99289.78
2022-12-31T00:03:02.735Z,99288.38
2022-12-31T00:05:33.535Z,99279.53
2022-12-31T00:08:01.986Z,99267.56
2022-12-31T00:10:30.636Z,99266.13
2022-12-31T00:12:58.585Z,99257.66
2022-12-31T00:15:26.595Z,99244.97
2022-12-31T00:17:54.511Z,99243.56
2022-12-31T00:20:22.473Z,99218.22
2022-12-31T00:22:51.907Z,99217.94
2022-12-31T00:25:21.039Z,99210.28
2022-12-31T00:27:49.099Z,99215.81
2022-12-31T00:30:17.420Z,99210.34
2022-12-31T00:32:45.323Z,99215.91
2022-12-31T00:35:13.363Z,99225.97
2022-12-31T00:37:41.398Z,99215.91
2022-12-31T00:40:12.473Z,99223.09
2022-12-31T00:42:40.406Z,99225.22
2022-12-31T00:45:09.435Z,99238.78
2022-12-31T00:47:37.517Z,99181.31
2022-12-31T00:50:06.288Z,99219.75
2022-12-31T00:52:34.320Z,99215.81
2022-12-31T00:55:02.376Z,99207.53
2022-12-31T00:57:31.617Z,99194.47
2022-12-31T00:59:59.693Z,99196.97
2022-12-31T01:02:27.812Z,99186.16
2022-12-31T01:04:55.869Z,99139.19
2022-12-31T01:07:23.847Z,99189.03
2022-12-31T01:09:53.866Z,99185.13
2022-12-31T01:12:21.917Z,99180.38
2022-12-31T01:14:51.431Z,99169.16
2022-12-31T01:17:19.501Z,99157.31
2022-12-31T01:19:47.596Z,99149.00
2022-12-31T01:22:15.646Z,99126.97
2022-12-31T01:24:43.633Z,99110.75
2022-12-31T01:27:11.822Z,99105.81
2022-12-31T01:29:39.870Z,99104.56
2022-12-31T01:32:09.244Z,99051.50
2022-12-31T01:34:37.319Z,99112.94
2022-12-31T01:37:05.283Z,99094.63
2022-12-31T01:39:33.273Z,99093.63
2022-12-31T01:42:01.347Z,99084.47
2022-12-31T01:44:59.488Z,99062.41
2022-12-31T01:47:39.042Z,99060.56
2022-12-31T01:50:16.820Z,99047.69
2022-12-31T01:52:48.026Z,99041.78
2022-12-31T01:55:20.092Z,99042.53
2022-12-31T01:57:50.928Z,99044.09
2022-12-31T02:00:19.091Z,99021.91
2022-12-31T02:02:48.633Z,99017.69
2022-12-31T02:05:23.394Z,99015.72
2022-12-31T02:07:53.175Z,99004.41
2022-12-31T02:10:21.162Z,98966.72
2022-12-31T02:12:49.837Z,98937.59
2022-12-31T02:15:18.797Z,98952.72
2022-12-31T02:17:56.708Z,98954.97
2022-12-31T02:20:55.094Z,98960.69
2022-12-31T02:24:10.672Z,98924.88
2022-12-31T02:26:50.856Z,98922.78
2022-12-31T02:29:52.299Z,98896.53
2022-12-31T02:32:25.861Z,98883.75
2022-12-31T02:34:57.757Z,98895.63
2022-12-31T02:37:28.440Z,98863.13
2022-12-31T02:39:56.761Z,98860.84
2022-12-31T02:42:24.780Z,98873.69
2022-12-31T02:44:54.118Z,98882.16
2022-12-31T02:47:33.348Z,98873.25
2022-12-31T02:50:18.357Z,98865.91
2022-12-31T02:52:56.139Z,98863.72
2022-12-31T02:55:31.791Z,98861.38
2022-12-31T02:58:09.111Z,98876.75
2022-12-31T03:01:03.069Z,98876.84
2022-12-31T03:03:32.633Z,98857.31
2022-12-31T03:06:03.254Z,98864.81
2022-12-31T03:08:31.281Z,98850.31
2022-12-31T03:10:59.263Z,98845.72
2022-12-31T03:13:26.529Z,98833.44
2022-12-31T03:15:56.080Z,98823.72
2022-12-31T03:18:44.251Z,98815.34
2022-12-31T03:21:31.341Z,98800.19
2022-12-31T03:24:16.633Z,98803.66
2022-12-31T03:26:44.701Z,98769.03
2022-12-31T03:29:12.615Z,98792.19
2022-12-31T03:31:41.984Z,98792.56
2022-12-31T03:34:09.932Z,98767.44
2022-12-31T03:36:37.961Z,98768.66
2022-12-31T03:39:06.117Z,98770.53
2022-12-31T03:41:34.044Z,98766.56
2022-12-31T03:44:02.051Z,98739.38
2022-12-31T03:46:29.955Z,98744.75
2022-12-31T03:48:59.321Z,98742.91
2022-12-31T03:51:27.345Z,98743.94
2022-12-31T03:53:55.366Z,98729.63
2022-12-31T03:56:23.251Z,98750.38
2022-12-31T03:58:51.267Z,98743.13
2022-12-31T04:01:19.737Z,98715.31
2022-12-31T04:03:47.761Z,98725.72
2022-12-31T04:06:17.324Z,98724.47
2022-12-31T04:08:45.270Z,98720.72
2022-12-31T04:11:20.491Z,98711.41
2022-12-31T04:13:48.969Z,98704.94
2022-12-31T04:16:16.998Z,98686.00
2022-12-31T04:18:44.919Z,98702.00
2022-12-31T04:21:12.848Z,98698.28
2022-12-31T04:23:42.723Z,98703.28
2022-12-31T04:26:10.751Z,98697.25
2022-12-31T04:28:38.667Z,98700.75
2022-12-31T04:31:06.819Z,98701.59
2022-12-31T04:33:34.904Z,98700.97
2022-12-31T04:36:03.195Z,98686.66
2022-12-31T04:38:31.532Z,98674.84
2022-12-31T04:41:19.733Z,98660.41
2022-12-31T04:43:50.388Z,98683.78
2022-12-31T04:46:20.760Z,98672.31
2022-12-31T04:48:48.733Z,98677.28
2022-12-31T04:51:16.831Z,98668.53
2022-12-31T04:53:44.919Z,98683.69
2022-12-31T04:56:14.788Z,98674.97
2022-12-31T04:58:42.892Z,98661.03
2022-12-31T05:01:11.229Z,98671.41
2022-12-31T05:03:39.775Z,98673.44
2022-12-31T05:06:10.330Z,98680.91
2022-12-31T05:08:38.486Z,98675.75
2022-12-31T05:11:06.542Z,98672.03
2022-12-31T05:13:36.087Z,98669.50
2022-12-31T05:16:04.610Z,98672.41
2022-12-31T05:18:33.527Z,98664.31
2022-12-31T05:21:01.547Z,98664.50
2022-12-31T05:23:29.733Z,98656.41
2022-12-31T05:25:59.568Z,98666.41
2022-12-31T05:28:27.802Z,98663.88
2022-12-31T05:30:57.222Z,98663.31
2022-12-31T05:33:25.275Z,98670.75
2022-12-31T05:35:53.169Z,98673.44
2022-12-31T05:38:22.937Z,98672.59
2022-12-31T05:40:50.827Z,98670.56
2022-12-31T05:43:18.850Z,98674.72
2022-12-31T05:45:46.803Z,98683.06
2022-12-31T05:48:16.315Z,98689.31
2022-12-31T05:50:44.280Z,98688.63
2022-12-31T05:53:12.612Z,98693.41
2022-12-31T05:55:40.595Z,98702.53
2022-12-31T05:58:08.678Z,98699.84
2022-12-31T06:00:38.878Z,98704.19
2022-12-31T06:03:07.308Z,98707.53
2022-12-31T06:05:39.858Z,98713.38
2022-12-31T06:08:07.838Z,98711.91
2022-12-31T06:10:35.833Z,98709.59
2022-12-31T06:13:03.889Z,98721.81
2022-12-31T06:15:31.849Z,98729.44
2022-12-31T06:18:00.017Z,98725.91
2022-12-31T06:20:28.000Z,98732.34
2022-12-31T06:22:57.338Z,98734.34
2022-12-31T06:25:25.254Z,98748.03
2022-12-31T06:27:53.273Z,98733.06
2022-12-31T06:30:21.191Z,98742.16
2022-12-31T06:32:49.166Z,98740.53
2022-12-31T06:35:19.433Z,98739.69
2022-12-31T06:37:47.661Z,98741.75
2022-12-31T06:40:17.279Z,98740.06
2022-12-31T06:42:45.341Z,98740.44
2022-12-31T06:45:13.350Z,98747.69
2022-12-31T06:47:41.454Z,98754.75
2022-12-31T06:50:10.346Z,98752.69
2022-12-31T06:52:38.801Z,98766.63
2022-12-31T06:55:08.065Z,98775.38
2022-12-31T06:57:38.001Z,98772.25
2022-12-31T07:00:07.697Z,98775.38
2022-12-31T07:02:55.177Z,98770.81
2022-12-31T07:05:32.155Z,98769.97
2022-12-31T07:08:12.688Z,98781.41
2022-12-31T07:10:50.818Z,98773.88
2022-12-31T07:13:53.646Z,98771.19
2022-12-31T07:16:35.868Z,98768.31
2022-12-31T07:19:14.594Z,98779.53
2022-12-31T07:21:43.282Z,98785.13
2022-12-31T07:24:12.832Z,98750.53
2022-12-31T07:26:56.755Z,98784.28
2022-12-31T07:29:39.922Z,98784.50
2022-12-31T07:32:20.661Z,98773.03
2022-12-31T07:35:00.104Z,98783.56
2022-12-31T07:37:38.889Z,98789.16
2022-12-31T07:40:19.731Z,98799.31
2022-12-31T07:43:03.803Z,98793.25
2022-12-31T07:45:39.000Z,98787.44
2022-12-31T07:48:21.986Z,98791.97
2022-12-31T07:50:50.622Z,98801.06
2022-12-31T07:53:19.122Z,98802.13
2022-12-31T07:55:47.132Z,98812.06
2022-12-31T07:58:23.419Z,98809.16
2022-12-31T08:00:56.877Z,98806.66
2022-12-31T08:03:42.036Z,98803.13
2022-12-31T08:06:13.385Z,98789.66
2022-12-31T08:08:50.791Z,98775.53
2022-12-31T08:11:26.833Z,98785.09
2022-12-31T08:13:57.212Z,98788.81
2022-12-31T08:16:27.538Z,98791.72
2022-12-31T08:18:56.006Z,98806.22
2022-12-31T08:21:35.250Z,98794.03
2022-12-31T08:24:15.052Z,98812.06
2022-12-31T08:26:54.579Z,98822.22
2022-12-31T08:29:37.269Z,98818.28
2022-12-31T08:32:13.818Z,98817.25
2022-12-31T08:34:50.311Z,98814.66
2022-12-31T08:37:27.593Z,98826.72
2022-12-31T08:40:07.208Z,98826.16
2022-12-31T08:42:45.975Z,98817.50
2022-12-31T08:45:21.113Z,98827.91
2022-12-31T08:48:01.544Z,98826.03
2022-12-31T08:50:30.541Z,98846.31
2022-12-31T08:52:59.276Z,98822.16
2022-12-31T08:55:27.806Z,98840.94
2022-12-31T08:58:11.543Z,98840.56
2022-12-31T09:00:41.734Z,98841.94
2022-12-31T09:03:32.805Z,98841.31
2022-12-31T09:06:07.654Z,98849.75
2022-12-31T09:08:46.034Z,98863.06
2022-12-31T09:11:23.185Z,98868.25
2022-12-31T09:14:18.634Z,98874.97
2022-12-31T09:16:56.294Z,98872.44
2022-12-31T09:19:25.752Z,98868.91
2022-12-31T09:21:54.209Z,98883.06
2022-12-31T09:24:23.214Z,98878.47
2022-12-31T09:27:03.317Z,98873.66
2022-12-31T09:29:44.299Z,98872.81
2022-12-31T09:32:21.837Z,98883.81
2022-12-31T09:34:57.717Z,98882.31
2022-12-31T09:37:39.938Z,98901.00
2022-12-31T09:40:44.674Z,98894.38
2022-12-31T09:44:00.854Z,98902.69
2022-12-31T09:47:00.996Z,98900.16
2022-12-31T09:49:56.707Z,98900.56
2022-12-31T09:52:39.074Z,98907.16
2022-12-31T09:55:28.731Z,98916.72
2022-12-31T09:58:08.104Z,98938.09
2022-12-31T10:00:43.656Z,98928.31
2022-12-31T10:03:31.133Z,98916.91
2022-12-31T10:06:17.201Z,98903.63
2022-12-31T10:09:03.806Z,98905.47
2022-12-31T10:11:42.286Z,98899.06
2022-12-31T10:14:34.255Z,98905.47
2022-12-31T10:17:18.741Z,98888.28
2022-12-31T10:20:09.509Z,98885.19
2022-12-31T10:23:11.457Z,98882.50
2022-12-31T10:26:03.766Z,98875.88
2022-12-31T10:28:38.571Z,98888.56
2022-12-31T10:31:16.240Z,98888.19
2022-12-31T10:33:46.617Z,98897.06
2022-12-31T10:36:21.902Z,98894.38
2022-12-31T10:39:07.432Z,98891.50
2022-12-31T10:42:35.291Z,98905.53
2022-12-31T10:45:26.267Z,98908.91
2022-12-31T10:48:30.723Z,98901.00
2022-12-31T10:51:29.077Z,98911.50
2022-12-31T10:54:57.981Z,98902.31
2022-12-31T10:58:04.747Z,98885.69
2022-12-31T11:00:37.453Z,98898.97
2022-12-31T11:03:49.777Z,98902.69
2022-12-31T11:06:58.137Z,98888.28
2022-12-31T11:09:54.741Z,98895.72
2022-12-31T11:12:41.963Z,98895.53
2022-12-31T11:15:34.784Z,98889.31
2022-12-31T11:18:08.435Z,98882.25
2022-12-31T11:20:53.030Z,98885.78
2022-12-31T11:23:36.566Z,98885.78
2022-12-31T11:26:19.719Z,98887.00
2022-12-31T11:29:25.646Z,98882.63
2022-12-31T11:32:08.867Z,98881.78
2022-12-31T11:35:02.534Z,98892.38
2022-12-31T11:37:38.068Z,98886.78
2022-12-31T11:40:22.455Z,98876.50
2022-12-31T11:42:58.661Z,98874.63
2022-12-31T11:45:44.443Z,98873.22
2022-12-31T11:48:32.428Z,98881.78
2022-12-31T11:51:15.833Z,98876.19
2022-12-31T11:54:21.706Z,98878.25
2022-12-31T11:57:00.734Z,98889.41
2022-12-31T11:59:28.759Z,98881.31
2022-12-31T12:02:01.946Z,98880.94
2022-12-31T12:04:31.483Z,98876.19
2022-12-31T12:06:59.540Z,98863.06
2022-12-31T12:09:31.347Z,98856.31
2022-12-31T12:12:00.952Z,98851.56
2022-12-31T12:14:33.763Z,98858.78
2022-12-31T12:17:05.258Z,98857.78
2022-12-31T12:19:36.941Z,98851.19
2022-12-31T12:22:13.015Z,98865.31
2022-12-31T12:24:41.465Z,98867.16
2022-12-31T12:27:22.180Z,98862.81
2022-12-31T12:29:50.193Z,98849.06
2022-12-31T12:32:20.387Z,98855.84
2022-12-31T12:34:50.402Z,98858.91
2022-12-31T12:37:33.449Z,98852.88
2022-12-31T12:40:03.753Z,98857.78
2022-12-31T12:42:31.947Z,98859.84
2022-12-31T12:45:03.153Z,98858.00
2022-12-31T12:47:32.620Z,98844.72
2022-12-31T12:50:02.357Z,98846.56
2022-12-31T12:52:59.174Z,98847.59
2022-12-31T12:55:37.855Z,98835.53
2022-12-31T12:58:19.146Z,98836.34
2022-12-31T13:00:56.018Z,98835.69
2022-12-31T13:07:06.414Z,98828.16
2022-12-31T13:09:49.638Z,98803.72
2022-12-31T13:12:26.046Z,98817.19
2022-12-31T13:15:04.664Z,98826.31
2022-12-31T13:17:53.312Z,98822.78
2022-12-31T13:20:30.276Z,98821.94
2022-12-31T13:23:04.962Z,98819.72
2022-12-31T13:25:44.469Z,98813.84
2022-12-31T13:28:16.552Z,98820.19
2022-12-31T13:30:48.505Z,98819.16
2022-12-31T13:33:19.561Z,98827.06
2022-12-31T13:35:50.558Z,98817.56
2022-12-31T13:38:24.325Z,98814.03
2022-12-31T13:40:59.172Z,98823.41
2022-12-31T13:43:36.978Z,98816.97
2022-12-31T13:46:14.956Z,98815.13
2022-12-31T13:48:51.591Z,98814.94
2022-12-31T13:51:25.466Z,98813.06
2022-12-31T13:54:01.802Z,98818.84
2022-12-31T13:56:36.679Z,98814.88
2022-12-31T13:59:14.821Z,98821.09
2022-12-31T14:01:50.066Z,98821.09
2022-12-31T14:04:22.592Z,98816.72
2022-12-31T14:06:56.758Z,98815.06
2022-12-31T14:09:29.354Z,98819.78
2022-12-31T14:12:10.342Z,98814.66
2022-12-31T14:14:47.272Z,98811.88
2022-12-31T14:17:23.781Z,98807.50
2022-12-31T14:20:03.784Z,98806.28
2022-12-31T14:22:41.052Z,98798.59
2022-12-31T14:25:21.819Z,98800.63
2022-12-31T14:27:53.691Z,98802.50
2022-12-31T14:30:23.691Z,98804.81
2022-12-31T14:33:11.550Z,98802.56
2022-12-31T14:35:53.373Z,98809.84
2022-12-31T14:38:34.887Z,98797.38
2022-12-31T14:41:21.070Z,98787.81
2022-12-31T14:43:59.996Z,98803.97
2022-12-31T14:46:32.790Z,98808.53
2022-12-31T14:49:16.119Z,98806.47
2022-12-31T14:51:44.132Z,98806.72
2022-12-31T14:54:29.034Z,98813.06
2022-12-31T14:56:58.709Z,98811.47
2022-12-31T14:59:29.272Z,98807.72
2022-12-31T15:01:58.705Z,98805.66
2022-12-31T15:04:33.835Z,98811.56
2022-12-31T15:07:10.106Z,98807.16
2022-12-31T15:09:52.371Z,98812.94
2022-12-31T15:12:40.637Z,98813.31
2022-12-31T15:15:29.333Z,98814.16
2022-12-31T15:18:11.001Z,98825.38
2022-12-31T15:21:02.061Z,98820.28
2022-12-31T15:23:36.362Z,98822.03
2022-12-31T15:26:05.622Z,98832.06
2022-12-31T15:28:37.876Z,98838.34
2022-12-31T15:31:18.641Z,98828.22
2022-12-31T15:33:57.410Z,98822.63
2022-12-31T15:36:27.095Z,98797.56
2022-12-31T15:39:08.523Z,98816.84
2022-12-31T15:42:03.198Z,98824.31
2022-12-31T15:44:37.825Z,98825.31
2022-12-31T15:47:17.317Z,98823.25
2022-12-31T15:49:47.673Z,98825.69
2022-12-31T15:52:21.837Z,98825.06
2022-12-31T15:54:51.635Z,98828.78
2022-12-31T15:57:24.465Z,98816.34
2022-12-31T15:59:59.308Z,98795.00
2022-12-31T16:02:29.235Z,98821.63
2022-12-31T16:04:58.140Z,98839.69
2022-12-31T16:07:29.191Z,98835.75
2022-12-31T16:10:00.194Z,98833.06
2022-12-31T16:12:34.404Z,98844.31
2022-12-31T16:15:06.881Z,98853.72
2022-12-31T16:17:36.381Z,98843.75
2022-12-31T16:20:23.115Z,98865.16
2022-12-31T16:22:56.202Z,98869.69
2022-12-31T16:25:33.299Z,98863.84
2022-12-31T16:28:03.931Z,98879.59
2022-12-31T16:30:35.858Z,98871.28
2022-12-31T16:33:06.632Z,98873.16
2022-12-31T16:35:36.608Z,98871.94
2022-12-31T16:38:13.286Z,98867.00
2022-12-31T16:40:42.161Z,98870.72
2022-12-31T16:43:28.567Z,98870.16
2022-12-31T16:46:07.540Z,98867.63
2022-12-31T16:48:35.776Z,98878.25
2022-12-31T16:51:04.738Z,98874.13
2022-12-31T16:53:37.866Z,98871.91
2022-12-31T16:56:09.923Z,98863.44
2022-12-31T16:58:41.098Z,98884.59
2022-12-31T17:01:18.302Z,98883.38
2022-12-31T17:03:50.846Z,98886.75
2022-12-31T17:06:20.996Z,98894.00
2022-12-31T17:09:02.779Z,98882.81
2022-12-31T17:11:35.676Z,98884.94
2022-12-31T17:14:13.132Z,98881.41
2022-12-31T17:17:01.665Z,98886.81
2022-12-31T17:19:39.060Z,98889.72
2022-12-31T17:22:11.665Z,98895.09
2022-12-31T17:24:40.231Z,98903.84
2022-12-31T17:27:10.074Z,98909.44
2022-12-31T17:29:38.149Z,98897.13
2022-12-31T17:32:26.691Z,98908.59
2022-12-31T17:34:55.405Z,98913.31
2022-12-31T17:37:26.440Z,98907.56
2022-12-31T17:40:10.916Z,98916.94
2022-12-31T17:42:47.538Z,98925.69
2022-12-31T17:45:21.454Z,98928.84
2022-12-31T17:47:53.981Z,98933.03
2022-12-31T17:50:24.836Z,98928.63
2022-12-31T17:52:55.714Z,98935.84
2022-12-31T17:55:24.172Z,98945.41
2022-12-31T17:57:54.027Z,98946.25
2022-12-31T18:00:26.040Z,98941.28
2022-12-31T18:02:55.666Z,98937.19
2022-12-31T18:05:25.612Z,98945.75
2022-12-31T18:07:54.086Z,98943.72
2022-12-31T18:10:25.083Z,98954.72
2022-12-31T18:12:53.373Z,98956.28
2022-12-31T18:15:23.233Z,98967.44
2022-12-31T18:17:52.222Z,98959.19
2022-12-31T18:20:21.534Z,98963.34
2022-12-31T18:22:49.674Z,98957.13
2022-12-31T18:25:21.266Z,98981.41
2022-12-31T18:27:49.737Z,98988.50
2022-12-31T18:30:18.082Z,98996.97
2022-12-31T18:32:46.932Z,98982.44
2022-12-31T18:35:40.792Z,98977.44
2022-12-31T18:38:07.991Z,98989.16
2022-12-31T18:40:36.147Z,98983.28
2022-12-31T18:43:05.241Z,98995.56
2022-12-31T18:45:33.523Z,98998.44
2022-12-31T18:48:01.472Z,99000.81
2022-12-31T18:50:29.482Z,99006.84
2022-12-31T18:52:57.529Z,99007.69
2022-12-31T18:55:32.129Z,98998.75
2022-12-31T18:58:00.122Z,99012.25
2022-12-31T19:00:28.271Z,99008.53
2022-12-31T19:02:56.318Z,99013.09
2022-12-31T19:05:26.550Z,99023.25
2022-12-31T19:07:54.960Z,99017.72
2022-12-31T19:10:23.417Z,99019.78
2022-12-31T19:12:52.818Z,99020.41
2022-12-31T19:15:27.396Z,99043.03
2022-12-31T19:17:55.432Z,99043.88
2022-12-31T19:20:23.784Z,99041.00
2022-12-31T19:22:52.139Z,99051.81
2022-12-31T19:25:22.846Z,99082.81
2022-12-31T19:27:52.583Z,99086.34
2022-12-31T19:30:24.241Z,99082.06
2022-12-31T19:32:52.859Z,99084.94
2022-12-31T19:35:22.350Z,99089.69
2022-12-31T19:37:52.188Z,99094.25
2022-12-31T19:40:22.924Z,99095.72
2022-12-31T19:42:54.900Z,99097.22
2022-12-31T19:45:24.692Z,99100.97
2022-12-31T19:47:52.838Z,99112.59
2022-12-31T19:50:22.353Z,99096.84
2022-12-31T19:52:51.966Z,99123.00
2022-12-31T19:55:21.431Z,99120.50
2022-12-31T19:57:50.004Z,99122.84
2022-12-31T20:00:22.215Z,99123.84
2022-12-31T20:02:50.418Z,99108.16
2022-12-31T20:05:19.560Z,99095.09
2022-12-31T20:07:47.845Z,99115.22
2022-12-31T20:10:16.082Z,99125.16
2022-12-31T20:12:44.754Z,99135.78
2022-12-31T20:15:13.139Z,99138.13
2022-12-31T20:17:42.436Z,99144.16
2022-12-31T20:20:11.043Z,99148.44
2022-12-31T20:22:39.093Z,99103.00
2022-12-31T20:25:07.753Z,99160.72
2022-12-31T20:27:36.037Z,99157.19
2022-12-31T20:30:04.732Z,99166.13
2022-12-31T20:32:34.022Z,99174.03
2022-12-31T20:35:03.964Z,99179.25
2022-12-31T20:37:31.890Z,99175.97
2022-12-31T20:39:59.824Z,99199.19
2022-12-31T20:42:27.839Z,99200.88
2022-12-31T20:44:55.947Z,99200.66
2022-12-31T20:47:23.953Z,99209.81
2022-12-31T20:50:11.122Z,99226.00
2022-12-31T20:52:41.295Z,99221.25
2022-12-31T20:55:10.791Z,99220.03
2022-12-31T20:57:38.834Z,99220.63
2022-12-31T21:00:08.758Z,99222.47
2022-12-31T21:02:42.173Z,99232.63
2022-12-31T21:05:11.559Z,99231.41
2022-12-31T21:07:41.182Z,99225.63
2022-12-31T21:10:09.957Z,99224.81
2022-12-31T21:12:53.177Z,99224.81
2022-12-31T21:15:22.429Z,99220.63
2022-12-31T21:17:50.302Z,99226.19
2022-12-31T21:20:18.373Z,99240.72
2022-12-31T21:22:47.787Z,99236.34
2022-12-31T21:25:15.830Z,99239.56
2022-12-31T21:27:43.867Z,99238.56
2022-12-31T21:30:20.566Z,99237.75
2022-12-31T21:32:48.829Z,99234.16
2022-12-31T21:35:43.291Z,99238.72
2022-12-31T21:38:07.827Z,99238.72
2022-12-31T21:40:35.797Z,99247.66
2022-12-31T21:43:03.713Z,99259.47
2022-12-31T21:45:31.691Z,99251.75
2022-12-31T21:48:17.821Z,99252.78
2022-12-31T21:50:48.457Z,99253.31
2022-12-31T21:53:23.993Z,99232.56
2022-12-31T21:56:14.574Z,99243.91
2022-12-31T21:58:44.316Z,99232.84
2022-12-31T22:01:35.049Z,99230.31
2022-12-31T22:04:03.256Z,99230.13
2022-12-31T22:06:31.743Z,99246.44
2022-12-31T22:09:01.010Z,99255.66
2022-12-31T22:11:29.978Z,99257.63
2022-12-31T22:13:57.995Z,99256.94
2022-12-31T22:16:25.932Z,99268.00
2022-12-31T22:18:56.800Z,99243.13
2022-12-31T22:21:26.676Z,99276.03
2022-12-31T22:23:56.525Z,99277.31
2022-12-31T22:26:28.562Z,99285.88
2022-12-31T22:28:59.690Z,99289.50
2022-12-31T22:31:30.513Z,99297.25
2022-12-31T22:33:59.053Z,99305.00
2022-12-31T22:36:27.311Z,99310.41
2022-12-31T22:38:58.225Z,99313.84
2022-12-31T22:41:28.914Z,99313.25
2022-12-31T22:44:03.488Z,99324.50
2022-12-31T22:46:32.612Z,99319.19
2022-12-31T22:49:02.209Z,99329.53
2022-12-31T22:51:56.256Z,99335.06
2022-12-31T22:54:19.055Z,99348.44
2022-12-31T22:56:48.422Z,99356.53
2022-12-31T22:59:16.318Z,99356.19
2022-12-31T23:01:44.408Z,99366.53
2022-12-31T23:04:12.520Z,99379.19
2022-12-31T23:06:44.328Z,99391.38
2022-12-31T23:09:30.452Z,99379.25
2022-12-31T23:12:00.132Z,99383.16
2022-12-31T23:14:45.547Z,99389.38
2022-12-31T23:17:35.252Z,99388.72
2022-12-31T23:20:22.040Z,99386.41
2022-12-31T23:23:09.727Z,99396.53
2022-12-31T23:25:41.588Z,99395.69
2022-12-31T23:28:13.250Z,99399.41
2022-12-31T23:30:41.756Z,99395.03
2022-12-31T23:33:15.590Z,99401.25
2022-12-31T23:35:44.052Z,99404.34
2022-12-31T23:38:12.092Z,99397.41
2022-12-31T23:40:40.164Z,99404.00
2022-12-31T23:43:11.277Z,99407.91
2022-12-31T23:45:39.317Z,99423.06
2022-12-31T23:48:07.294Z,99443.47
2022-12-31T23:50:35.245Z,99449.38
2022-12-31T23:53:03.223Z,99442.28
2022-12-31T23:55:31.270Z,99435.13
2022-12-31T23:57:59.298Z,99439.53
